createdAt,value
2023-03-26T00:01:06.849Z,100529.75
2023-03-26T00:03:50.691Z,100537.50
2023-03-26T00:06:40.184Z,100504.50
2023-03-26T00:09:18.456Z,100525.72
2023-03-26T00:11:59.032Z,100531.84
2023-03-26T00:14:36.069Z,100539.59
2023-03-26T00:17:12.448Z,100556.94
2023-03-26T00:19:56.037Z,100560.44
2023-03-26T00:22:28.645Z,100564.13
2023-03-26T00:25:25.966Z,100572.16
2023-03-26T00:28:05.983Z,100571.78
2023-03-26T00:30:41.902Z,100562.53
2023-03-26T00:33:21.060Z,100562.00
2023-03-26T00:36:01.307Z,100549.97
2023-03-26T00:38:43.091Z,100542.63
2023-03-26T00:41:37.422Z,100527.50
2023-03-26T00:44:22.685Z,100544.34
2023-03-26T00:47:06.670Z,100548.56
2023-03-26T00:49:48.580Z,100547.13
2023-03-26T00:52:24.061Z,100547.19
2023-03-26T00:55:01.228Z,100541.38
2023-03-26T00:57:43.439Z,100535.84
2023-03-26T01:00:25.918Z,100537.31
2023-03-26T01:03:09.160Z,100545.44
2023-03-26T01:05:52.750Z,100540.09
2023-03-26T01:08:43.619Z,100537.50
2023-03-26T01:11:36.651Z,100539.69
2023-03-26T01:14:20.997Z,100509.34
2023-03-26T01:17:04.021Z,100520.41
2023-03-26T01:19:51.307Z,100544.03
2023-03-26T01:22:49.400Z,100531.47
2023-03-26T01:25:34.511Z,100538.16
2023-03-26T01:28:16.418Z,100533.59
2023-03-26T01:31:06.351Z,100541.44
2023-03-26T01:33:54.923Z,100528.09
2023-03-26T01:36:42.042Z,100519.47
2023-03-26T01:39:33.411Z,100527.81
2023-03-26T01:42:21.617Z,100533.97
2023-03-26T01:45:08.566Z,100533.94
2023-03-26T01:47:48.865Z,100527.75
2023-03-26T01:50:33.438Z,100514.34
2023-03-26T01:53:19.956Z,100502.63
2023-03-26T01:56:05.180Z,100509.59
2023-03-26T01:59:01.707Z,100509.09
2023-03-26T02:01:52.439Z,100502.16
2023-03-26T02:04:47.149Z,100506.97
2023-03-26T02:07:29.286Z,100469.16
2023-03-26T02:10:17.664Z,100517.09
2023-03-26T02:12:58.660Z,100517.31
2023-03-26T02:15:42.892Z,100511.41
2023-03-26T02:18:25.994Z,100512.47
2023-03-26T02:21:04.700Z,100507.91
2023-03-26T02:23:50.637Z,100508.34
2023-03-26T02:26:28.718Z,100505.91
2023-03-26T02:29:33.668Z,100530.97
2023-03-26T02:32:22.448Z,100525.56
2023-03-26T02:35:02.979Z,100521.72
2023-03-26T02:37:38.926Z,100523.56
2023-03-26T02:40:38.104Z,100525.69
2023-03-26T02:43:17.214Z,100519.81
2023-03-26T02:46:04.017Z,100520.88
2023-03-26T02:49:12.948Z,100521.16
2023-03-26T02:52:03.197Z,100534.56
2023-03-26T02:54:46.957Z,100536.16
2023-03-26T02:57:34.053Z,100526.28
2023-03-26T03:00:34.021Z,100543.09
2023-03-26T03:03:37.323Z,100535.31
2023-03-26T03:06:41.531Z,100534.47
2023-03-26T03:09:20.903Z,100541.72
2023-03-26T03:12:34.841Z,100530.16
2023-03-26T03:15:19.703Z,100523.47
2023-03-26T03:17:59.743Z,100508.16
2023-03-26T03:20:40.145Z,100527.50
2023-03-26T03:23:29.946Z,100525.09
2023-03-26T03:26:23.399Z,100527.78
2023-03-26T03:29:04.997Z,100524.00
2023-03-26T03:31:53.290Z,100526.41
2023-03-26T03:34:51.329Z,100525.88
2023-03-26T03:37:31.332Z,100514.84
2023-03-26T03:40:23.742Z,100506.22
2023-03-26T03:43:06.314Z,100516.69
2023-03-26T03:45:56.067Z,100523.09
2023-03-26T03:48:45.711Z,100539.16
2023-03-26T03:51:37.712Z,100533.25
2023-03-26T03:54:28.921Z,100545.84
2023-03-26T03:57:26.516Z,100550.91
2023-03-26T04:00:34.218Z,100532.66
2023-03-26T04:03:33.052Z,100518.09
2023-03-26T04:06:26.598Z,100551.94
2023-03-26T04:09:16.065Z,100559.66
2023-03-26T04:11:53.785Z,100556.19
2023-03-26T04:15:00.195Z,100543.06
2023-03-26T04:17:43.055Z,100553.50
2023-03-26T04:20:26.927Z,100551.06
2023-03-26T04:23:04.160Z,100558.28
2023-03-26T04:25:47.310Z,100542.47
2023-03-26T04:28:33.480Z,100548.91
2023-03-26T04:31:41.120Z,100548.91
2023-03-26T04:34:28.081Z,100537.59
2023-03-26T04:37:34.914Z,100549.66
2023-03-26T04:40:28.864Z,100558.28
2023-03-26T04:43:32.783Z,100563.38
2023-03-26T04:46:42.250Z,100565.22
2023-03-26T04:49:29.767Z,100566.03
2023-03-26T04:52:06.108Z,100564.41
2023-03-26T04:54:57.647Z,100569.91
2023-03-26T04:57:50.534Z,100580.63
2023-03-26T05:00:50.142Z,100588.97
2023-03-26T05:03:34.610Z,100592.97
2023-03-26T05:06:23.481Z,100571.47
2023-03-26T05:09:23.399Z,100598.56
2023-03-26T05:12:30.371Z,100594.31
2023-03-26T05:15:45.120Z,100596.66
2023-03-26T05:18:46.088Z,100595.81
2023-03-26T05:21:23.020Z,100602.25
2023-03-26T05:23:59.043Z,100613.69
2023-03-26T05:26:41.764Z,100615.31
2023-03-26T05:29:23.806Z,100605.63
2023-03-26T05:32:08.605Z,100614.50
2023-03-26T05:34:48.562Z,100613.13
2023-03-26T05:37:26.213Z,100633.03
2023-03-26T05:40:17.260Z,100623.47
2023-03-26T05:43:23.023Z,100624.03
2023-03-26T05:46:36.086Z,100622.47
2023-03-26T05:49:31.320Z,100625.75
2023-03-26T05:52:26.057Z,100626.94
2023-03-26T05:55:29.399Z,100637.69
2023-03-26T05:58:52.818Z,100626.06
2023-03-26T06:01:51.281Z,100596.63
2023-03-26T06:04:58.362Z,100626.25
2023-03-26T06:08:02.957Z,100627.88
2023-03-26T06:10:47.371Z,100631.75
2023-03-26T06:13:27.272Z,100589.34
2023-03-26T06:16:27.181Z,100608.50
2023-03-26T06:19:29.417Z,100615.88
2023-03-26T06:22:13.720Z,100615.34
2023-03-26T06:25:33.074Z,100623.16
2023-03-26T06:28:29.125Z,100615.19
2023-03-26T06:31:29.889Z,100621.41
2023-03-26T06:34:33.163Z,100589.78
2023-03-26T06:37:17.578Z,100628.97
2023-03-26T06:39:56.353Z,100623.91
2023-03-26T06:43:09.270Z,100622.56
2023-03-26T06:46:02.834Z,100623.38
2023-03-26T06:48:50.596Z,100617.81
2023-03-26T06:51:51.153Z,100622.13
2023-03-26T06:54:53.586Z,100619.72
2023-03-26T06:58:11.003Z,100614.41
2023-03-26T07:04:19.669Z,100624.94
2023-03-26T07:07:28.638Z,100616.34
2023-03-26T07:10:31.320Z,100624.69
2023-03-26T07:13:28.469Z,100611.00
2023-03-26T07:16:34.680Z,100617.97
2023-03-26T07:19:34.329Z,100615.31
2023-03-26T07:22:20.464Z,100587.41
2023-03-26T07:25:44.224Z,100593.25
2023-03-26T07:29:03.665Z,100597.00
2023-03-26T07:32:27.267Z,100602.88
2023-03-26T07:38:51.388Z,100578.06
2023-03-26T07:41:58.440Z,100583.88
2023-03-26T07:45:05.448Z,100579.56
2023-03-26T07:48:04.880Z,100571.94
2023-03-26T07:51:20.924Z,100574.53
2023-03-26T07:54:18.801Z,100554.03
2023-03-26T07:57:21.051Z,100566.75
2023-03-26T08:00:17.349Z,100569.88
2023-03-26T08:03:21.604Z,100572.47
2023-03-26T08:06:34.530Z,100565.41
2023-03-26T08:09:58.313Z,100555.63
2023-03-26T08:12:55.530Z,100554.84
2023-03-26T08:15:42.343Z,100556.41
2023-03-26T08:18:40.276Z,100533.56
2023-03-26T08:21:21.745Z,100551.72
2023-03-26T08:24:13.432Z,100546.63
2023-03-26T08:26:57.712Z,100543.63
2023-03-26T08:29:42.455Z,100550.00
2023-03-26T08:32:30.044Z,100552.91
2023-03-26T08:35:10.199Z,100553.69
2023-03-26T08:37:47.861Z,100540.69
2023-03-26T08:40:40.892Z,100536.94
2023-03-26T08:43:49.430Z,100528.47
2023-03-26T08:47:09.895Z,100508.13
2023-03-26T08:50:21.202Z,100510.44
2023-03-26T08:53:26.367Z,100516.81
2023-03-26T08:56:17.615Z,100525.16
2023-03-26T08:59:45.458Z,100527.50
2023-03-26T09:02:58.677Z,100524.19
2023-03-26T09:05:57.001Z,100522.34
2023-03-26T09:09:05.397Z,100533.41
2023-03-26T09:12:13.851Z,100512.09
2023-03-26T09:15:36.041Z,100513.47
2023-03-26T09:18:53.555Z,100508.41
2023-03-26T09:21:47.601Z,100506.88
2023-03-26T09:25:15.965Z,100494.34
2023-03-26T09:28:24.108Z,100501.88
2023-03-26T09:31:31.951Z,100492.19
2023-03-26T09:34:36.747Z,100492.38
2023-03-26T09:37:33.545Z,100492.41
2023-03-26T09:40:25.156Z,100484.28
2023-03-26T09:43:15.025Z,100477.75
2023-03-26T09:46:33.635Z,100474.75
2023-03-26T09:49:33.224Z,100461.66
2023-03-26T09:52:41.894Z,100466.59
2023-03-26T09:55:53.312Z,100455.59
2023-03-26T09:58:42.025Z,100453.69
2023-03-26T10:01:27.367Z,100440.91
2023-03-26T10:04:41.038Z,100436.44
2023-03-26T10:07:49.686Z,100431.34
2023-03-26T10:10:34.413Z,100440.75
2023-03-26T10:13:30.358Z,100428.00
2023-03-26T10:16:26.775Z,100430.59
2023-03-26T10:19:30.302Z,100426.28
2023-03-26T10:22:24.343Z,100434.28
2023-03-26T10:25:30.259Z,100423.84
2023-03-26T10:28:38.358Z,100416.78
2023-03-26T10:31:44.162Z,100415.66
2023-03-26T10:34:47.245Z,100409.88
2023-03-26T10:37:45.734Z,100410.13
2023-03-26T10:40:29.053Z,100401.00
2023-03-26T10:43:37.331Z,100395.97
2023-03-26T10:46:44.378Z,100403.91
2023-03-26T10:49:51.340Z,100399.41
2023-03-26T10:52:37.718Z,100393.97
2023-03-26T10:55:27.816Z,100397.63
2023-03-26T10:58:20.747Z,100385.69
2023-03-26T11:01:08.196Z,100377.16
2023-03-26T11:04:13.421Z,100361.31
2023-03-26T11:07:05.034Z,100359.91
2023-03-26T11:09:54.051Z,100354.19
2023-03-26T11:12:34.819Z,100361.53
2023-03-26T11:15:37.050Z,100349.59
2023-03-26T11:18:24.989Z,100331.72
2023-03-26T11:21:19.510Z,100328.78
2023-03-26T11:24:17.587Z,100322.22
2023-03-26T11:27:15.384Z,100305.31
2023-03-26T11:30:20.993Z,100312.94
2023-03-26T11:33:05.638Z,100312.75
2023-03-26T11:35:48.643Z,100299.81
2023-03-26T11:38:36.862Z,100295.84
2023-03-26T11:41:32.882Z,100296.88
2023-03-26T11:44:32.388Z,100266.91
2023-03-26T11:47:17.153Z,100272.75
2023-03-26T11:50:04.729Z,100261.09
2023-03-26T11:52:47.015Z,100248.00
2023-03-26T11:55:30.706Z,100243.59
2023-03-26T11:58:38.946Z,100229.91
2023-03-26T12:01:25.994Z,100232.53
2023-03-26T12:04:19.612Z,100210.03
2023-03-26T12:07:22.808Z,100203.53
2023-03-26T12:10:18.649Z,100207.66
2023-03-26T12:13:05.040Z,100204.88
2023-03-26T12:15:52.356Z,100198.53
2023-03-26T12:18:40.469Z,100194.19
2023-03-26T12:21:15.354Z,100189.41
2023-03-26T12:24:14.838Z,100185.47
2023-03-26T12:26:58.217Z,100178.31
2023-03-26T12:29:39.801Z,100173.88
2023-03-26T12:32:27.404Z,100165.25
2023-03-26T12:35:42.485Z,100164.78
2023-03-26T12:38:31.646Z,100155.13
2023-03-26T12:43:51.654Z,100151.06
2023-03-26T12:44:46.610Z,100144.91
2023-03-26T12:47:59.262Z,100130.50
2023-03-26T12:50:56.298Z,100132.84
2023-03-26T12:54:00.149Z,100128.13
2023-03-26T12:56:46.677Z,100116.03
2023-03-26T12:59:49.143Z,100110.50
2023-03-26T13:02:58.598Z,100117.56
2023-03-26T13:05:51.213Z,100119.81
2023-03-26T13:08:50.881Z,100113.41
2023-03-26T13:11:40.592Z,100087.41
2023-03-26T13:14:52.762Z,100086.31
2023-03-26T13:17:41.955Z,100090.66
2023-03-26T13:20:23.388Z,100079.00
2023-03-26T13:23:17.462Z,100072.78
2023-03-26T13:26:01.830Z,100072.94
2023-03-26T13:28:48.121Z,100067.50
2023-03-26T13:31:53.491Z,100063.91
2023-03-26T13:34:49.973Z,100061.31
2023-03-26T13:37:38.366Z,100059.84
2023-03-26T13:40:42.079Z,100049.31
2023-03-26T13:43:37.093Z,100049.44
2023-03-26T13:46:27.226Z,100053.72
2023-03-26T13:49:18.126Z,100047.38
2023-03-26T13:52:04.205Z,100031.53
2023-03-26T13:54:46.522Z,100014.94
2023-03-26T13:57:53.767Z,100020.16
2023-03-26T14:00:39.710Z,100014.03
2023-03-26T14:03:27.292Z,100011.31
2023-03-26T14:06:06.455Z,100004.75
2023-03-26T14:08:59.896Z,99990.97
2023-03-26T14:11:50.249Z,99993.56
2023-03-26T14:14:51.080Z,99993.00
2023-03-26T14:17:35.117Z,99989.72
2023-03-26T14:20:54.364Z,99983.25
2023-03-26T14:24:21.008Z,99979.66
2023-03-26T14:27:13.604Z,99966.50
2023-03-26T14:30:23.472Z,99944.75
2023-03-26T14:33:27.519Z,99954.56
2023-03-26T14:36:16.839Z,99943.97
2023-03-26T14:39:22.497Z,99935.69
2023-03-26T14:42:04.842Z,99928.06
2023-03-26T14:45:06.874Z,99915.38
2023-03-26T14:48:20.052Z,99907.91
2023-03-26T14:51:09.466Z,99911.59
2023-03-26T14:53:58.005Z,99896.13
2023-03-26T14:57:10.715Z,99891.97
2023-03-26T15:00:23.652Z,99882.13
2023-03-26T15:03:43.413Z,99876.59
2023-03-26T15:07:04.164Z,99873.88
2023-03-26T15:10:09.110Z,99872.97
2023-03-26T15:12:57.606Z,99865.06
2023-03-26T15:16:02.760Z,99858.06
2023-03-26T15:19:19.975Z,99854.19
2023-03-26T15:22:31.936Z,99845.59
2023-03-26T15:25:38.274Z,99843.50
2023-03-26T15:28:59.849Z,99837.34
2023-03-26T15:32:07.234Z,99834.94
2023-03-26T15:35:10.602Z,99801.31
2023-03-26T15:38:09.940Z,99800.00
2023-03-26T15:41:17.205Z,99812.03
2023-03-26T15:44:40.952Z,99790.00
2023-03-26T15:47:57.954Z,99788.75
2023-03-26T15:51:03.425Z,99785.84
2023-03-26T15:53:47.330Z,99792.00
2023-03-26T15:56:36.516Z,99781.56
2023-03-26T15:59:28.904Z,99779.53
2023-03-26T16:02:33.261Z,99752.56
2023-03-26T16:05:48.706Z,99769.66
2023-03-26T16:08:40.056Z,99771.16
2023-03-26T16:11:13.993Z,99759.09
2023-03-26T16:14:23.583Z,99762.50
2023-03-26T16:17:10.101Z,99759.31
2023-03-26T16:20:31.825Z,99746.44
2023-03-26T16:23:29.358Z,99741.16
2023-03-26T16:26:23.141Z,99723.88
2023-03-26T16:29:29.894Z,99737.75
2023-03-26T16:32:15.975Z,99722.13
2023-03-26T16:34:59.460Z,99708.78
2023-03-26T16:38:26.685Z,99724.59
2023-03-26T16:41:15.199Z,99725.78
2023-03-26T16:44:16.752Z,99720.84
2023-03-26T16:47:08.274Z,99686.63
2023-03-26T16:50:13.264Z,99717.25
2023-03-26T16:53:03.007Z,99714.56
2023-03-26T16:55:53.052Z,99712.22
2023-03-26T16:59:02.962Z,99711.09
2023-03-26T17:02:05.980Z,99709.19
2023-03-26T17:04:40.847Z,99700.94
2023-03-26T17:07:31.224Z,99699.44
2023-03-26T17:10:34.456Z,99691.88
2023-03-26T17:13:16.304Z,99696.91
2023-03-26T17:16:06.608Z,99686.19
2023-03-26T17:19:01.374Z,99691.69
2023-03-26T17:21:50.969Z,99682.41
2023-03-26T17:24:45.194Z,99691.22
2023-03-26T17:27:44.714Z,99687.13
2023-03-26T17:30:46.445Z,99688.50
2023-03-26T17:33:37.260Z,99671.13
2023-03-26T17:36:58.477Z,99694.31
2023-03-26T17:40:17.799Z,99686.38
2023-03-26T17:43:19.524Z,99683.25
2023-03-26T17:46:10.203Z,99682.66
2023-03-26T17:48:52.952Z,99684.75
2023-03-26T17:51:57.777Z,99684.97
2023-03-26T17:54:55.670Z,99682.66
2023-03-26T17:57:46.510Z,99682.88
2023-03-26T18:00:27.177Z,99678.75
2023-03-26T18:03:06.138Z,99661.91
2023-03-26T18:06:00.790Z,99676.13
2023-03-26T18:08:56.457Z,99673.59
2023-03-26T18:12:04.341Z,99669.66
2023-03-26T18:15:25.760Z,99666.53
2023-03-26T18:18:35.116Z,99664.81
2023-03-26T18:21:14.718Z,99653.25
2023-03-26T18:23:59.677Z,99665.53
2023-03-26T18:26:46.623Z,99666.06
2023-03-26T18:29:36.141Z,99654.97
2023-03-26T18:32:26.431Z,99656.22
2023-03-26T18:35:22.402Z,99656.06
2023-03-26T18:38:07.694Z,99656.06
2023-03-26T18:41:10.291Z,99645.47
2023-03-26T18:44:01.590Z,99646.59
2023-03-26T18:46:49.257Z,99634.34
2023-03-26T18:49:35.925Z,99641.16
2023-03-26T18:52:32.148Z,99638.19
2023-03-26T18:55:09.560Z,99635.69
2023-03-26T18:58:01.157Z,99622.53
2023-03-26T19:00:39.329Z,99620.13
2023-03-26T19:03:24.722Z,99604.41
2023-03-26T19:06:11.617Z,99580.63
2023-03-26T19:08:56.381Z,99599.91
2023-03-26T19:11:42.422Z,99581.56
2023-03-26T19:14:30.342Z,99572.66
2023-03-26T19:17:21.958Z,99561.53
2023-03-26T19:20:07.878Z,99562.78
2023-03-26T19:22:59.216Z,99550.72
2023-03-26T19:25:43.938Z,99556.44
2023-03-26T19:28:36.970Z,99552.81
2023-03-26T19:31:29.261Z,99529.03
2023-03-26T19:34:24.676Z,99542.66
2023-03-26T19:37:12.397Z,99538.69
2023-03-26T19:39:54.935Z,99529.47
2023-03-26T19:42:45.928Z,99526.75
2023-03-26T19:45:59.748Z,99516.91
2023-03-26T19:48:57.052Z,99494.59
2023-03-26T19:51:40.132Z,99514.88
2023-03-26T19:54:20.474Z,99511.25
2023-03-26T19:56:59.248Z,99515.97
2023-03-26T19:59:38.436Z,99508.06
2023-03-26T20:02:28.223Z,99498.84
2023-03-26T20:05:15.534Z,99482.38
2023-03-26T20:08:02.717Z,99485.31
2023-03-26T20:10:50.858Z,99459.53
2023-03-26T20:13:24.767Z,99477.88
2023-03-26T20:16:09.988Z,99468.19
2023-03-26T20:18:55.013Z,99466.78
2023-03-26T20:21:51.213Z,99422.09
2023-03-26T20:24:28.733Z,99436.81
2023-03-26T20:27:20.900Z,99437.41
2023-03-26T20:30:01.424Z,99422.84
2023-03-26T20:32:46.998Z,99414.59
2023-03-26T20:35:35.641Z,99409.97
2023-03-26T20:38:14.162Z,99402.53
2023-03-26T20:40:51.608Z,99415.59
2023-03-26T20:43:34.178Z,99399.28
2023-03-26T20:46:17.999Z,99388.47
2023-03-26T20:48:56.741Z,99382.31
2023-03-26T20:51:48.662Z,99382.31
2023-03-26T20:54:36.538Z,99383.09
2023-03-26T20:57:19.224Z,99385.66
2023-03-26T20:59:55.360Z,99381.88
2023-03-26T21:02:32.240Z,99377.81
2023-03-26T21:05:29.638Z,99365.16
2023-03-26T21:08:11.402Z,99357.88
2023-03-26T21:11:15.760Z,99361.75
2023-03-26T21:14:09.553Z,99352.59
2023-03-26T21:17:06.607Z,99336.09
2023-03-26T21:19:55.070Z,99344.06
2023-03-26T21:22:41.831Z,99323.09
2023-03-26T21:28:41.851Z,99318.41
2023-03-26T21:31:33.733Z,99310.16
2023-03-26T21:34:14.039Z,99303.50
2023-03-26T21:36:59.066Z,99302.56
2023-03-26T21:39:43.777Z,99298.78
2023-03-26T21:42:19.136Z,99284.50
2023-03-26T21:45:01.419Z,99263.63
2023-03-26T21:47:57.368Z,99248.72
2023-03-26T21:50:43.750Z,99271.34
2023-03-26T21:53:22.884Z,99270.53
2023-03-26T21:56:18.809Z,99281.97
2023-03-26T21:59:11.974Z,99281.19
2023-03-26T22:02:06.486Z,99255.41
2023-03-26T22:04:53.591Z,99259.03
2023-03-26T22:07:47.200Z,99255.06
2023-03-26T22:10:34.433Z,99248.25
2023-03-26T22:13:18.870Z,99248.06
2023-03-26T22:15:57.462Z,99246.00
2023-03-26T22:18:40.774Z,99244.41
2023-03-26T22:21:33.206Z,99236.66
2023-03-26T22:24:28.670Z,99238.84
2023-03-26T22:27:05.984Z,99233.13
2023-03-26T22:29:41.055Z,99241.22
2023-03-26T22:32:21.613Z,99221.72
2023-03-26T22:35:08.453Z,99236.00
2023-03-26T22:37:47.455Z,99223.63
2023-03-26T22:40:26.816Z,99218.59
2023-03-26T22:43:08.800Z,99208.91
2023-03-26T22:46:02.448Z,99205.25
2023-03-26T22:48:49.849Z,99195.09
2023-03-26T22:51:29.845Z,99196.22
2023-03-26T22:54:06.260Z,99193.66
2023-03-26T22:56:45.449Z,99193.19
2023-03-26T22:59:23.854Z,99193.53
2023-03-26T23:02:01.948Z,99187.34
2023-03-26T23:04:54.355Z,99184.31
2023-03-26T23:07:40.021Z,99189.69
2023-03-26T23:10:26.387Z,99182.75
2023-03-26T23:13:04.784Z,99180.84
2023-03-26T23:15:46.525Z,99169.44
2023-03-26T23:18:23.783Z,99173.50
2023-03-26T23:21:05.040Z,99163.22
2023-03-26T23:24:06.589Z,99159.59
2023-03-26T23:26:50.644Z,99138.88
2023-03-26T23:29:36.277Z,99146.72
2023-03-26T23:32:24.638Z,99140.06
2023-03-26T23:35:03.301Z,99137.84
2023-03-26T23:37:38.419Z,99129.94
2023-03-26T23:40:25.960Z,99132.75
2023-03-26T23:43:10.346Z,99126.13
2023-03-26T23:45:48.440Z,99126.56
2023-03-26T23:48:30.442Z,99123.56
2023-03-26T23:51:11.113Z,99115.00
2023-03-26T23:53:55.976Z,99104.22
2023-03-26T23:56:40.886Z,99101.88
2023-03-26T23:59:28.810Z,99104.56
